sensor_id;sensor_type;location;lat;lon;timestamp;P1;durP1;ratioP1;P2;durP2;ratioP2
31081;SDS011;17737;52.586;13.284;2023-02-24T00:00:18;3.00;;;1.58;;
31081;SDS011;17737;52.586;13.284;2023-02-24T00:02:57;2.30;;;1.60;;
31081;SDS011;17737;52.586;13.284;2023-02-24T00:05:32;2.13;;;1.40;;
31081;SDS011;17737;52.586;13.284;2023-02-24T00:08:03;2.00;;;1.33;;
31081;SDS011;17737;52.586;13.284;2023-02-24T00:10:32;2.72;;;1.50;;
31081;SDS011;17737;52.586;13.284;2023-02-24T00:13:02;2.97;;;1.50;;
31081;SDS011;17737;52.586;13.284;2023-02-24T00:15:30;3.08;;;1.70;;
31081;SDS011;17737;52.586;13.284;2023-02-24T00:17:58;2.85;;;1.77;;
31081;SDS011;17737;52.586;13.284;2023-02-24T00:20:32;2.20;;;1.38;;
31081;SDS011;17737;52.586;13.284;2023-02-24T00:23:00;2.83;;;1.33;;
31081;SDS011;17737;52.586;13.284;2023-02-24T00:25:30;2.58;;;1.48;;
31081;SDS011;17737;52.586;13.284;2023-02-24T00:27:58;2.40;;;1.50;;
31081;SDS011;17737;52.586;13.284;2023-02-24T00:30:26;2.13;;;1.27;;
31081;SDS011;17737;52.586;13.284;2023-02-24T00:32:56;1.60;;;1.20;;
31081;SDS011;17737;52.586;13.284;2023-02-24T00:35:26;1.73;;;1.10;;
31081;SDS011;17737;52.586;13.284;2023-02-24T00:37:55;1.40;;;1.00;;
31081;SDS011;17737;52.586;13.284;2023-02-24T00:40:23;1.15;;;0.85;;
31081;SDS011;17737;52.586;13.284;2023-02-24T00:42:53;2.10;;;1.30;;
31081;SDS011;17737;52.586;13.284;2023-02-24T00:45:21;1.75;;;1.10;;
31081;SDS011;17737;52.586;13.284;2023-02-24T00:47:49;1.15;;;0.75;;
31081;SDS011;17737;52.586;13.284;2023-02-24T00:50:17;1.15;;;1.02;;
31081;SDS011;17737;52.586;13.284;2023-02-24T00:52:46;1.02;;;0.90;;
31081;SDS011;17737;52.586;13.284;2023-02-24T00:55:15;1.38;;;0.85;;
31081;SDS011;17737;52.586;13.284;2023-02-24T00:57:44;0.95;;;0.80;;
31081;SDS011;17737;52.586;13.284;2023-02-24T01:00:14;0.93;;;0.70;;
31081;SDS011;17737;52.586;13.284;2023-02-24T01:02:45;1.90;;;0.82;;
31081;SDS011;17737;52.586;13.284;2023-02-24T01:05:13;1.50;;;0.75;;
31081;SDS011;17737;52.586;13.284;2023-02-24T01:07:41;1.05;;;0.65;;
31081;SDS011;17737;52.586;13.284;2023-02-24T01:10:10;0.88;;;0.70;;
31081;SDS011;17737;52.586;13.284;2023-02-24T01:12:38;1.10;;;0.70;;
31081;SDS011;17737;52.586;13.284;2023-02-24T01:15:16;1.23;;;0.82;;
31081;SDS011;17737;52.586;13.284;2023-02-24T01:17:47;2.30;;;1.00;;
31081;SDS011;17737;52.586;13.284;2023-02-24T01:20:16;1.40;;;0.90;;
31081;SDS011;17737;52.586;13.284;2023-02-24T01:22:45;0.85;;;0.57;;
31081;SDS011;17737;52.586;13.284;2023-02-24T01:25:15;1.20;;;0.70;;
31081;SDS011;17737;52.586;13.284;2023-02-24T01:27:45;1.05;;;0.95;;
31081;SDS011;17737;52.586;13.284;2023-02-24T01:30:14;1.00;;;0.80;;
31081;SDS011;17737;52.586;13.284;2023-02-24T01:35:13;1.25;;;0.73;;
31081;SDS011;17737;52.586;13.284;2023-02-24T01:37:43;1.67;;;0.82;;
31081;SDS011;17737;52.586;13.284;2023-02-24T01:40:12;1.10;;;0.70;;
31081;SDS011;17737;52.586;13.284;2023-02-24T01:42:46;1.13;;;0.70;;
31081;SDS011;17737;52.586;13.284;2023-02-24T01:45:22;1.65;;;0.77;;
31081;SDS011;17737;52.586;13.284;2023-02-24T01:47:56;1.35;;;0.90;;
31081;SDS011;17737;52.586;13.284;2023-02-24T01:50:30;1.35;;;0.82;;
31081;SDS011;17737;52.586;13.284;2023-02-24T01:53:01;1.33;;;0.73;;
31081;SDS011;17737;52.586;13.284;2023-02-24T01:55:33;1.75;;;0.90;;
31081;SDS011;17737;52.586;13.284;2023-02-24T01:58:09;0.98;;;0.80;;
31081;SDS011;17737;52.586;13.284;2023-02-24T02:00:47;0.80;;;0.60;;
31081;SDS011;17737;52.586;13.284;2023-02-24T02:03:19;1.83;;;1.00;;
31081;SDS011;17737;52.586;13.284;2023-02-24T02:05:59;1.20;;;0.82;;
31081;SDS011;17737;52.586;13.284;2023-02-24T02:08:29;1.20;;;0.77;;
31081;SDS011;17737;52.586;13.284;2023-02-24T02:11:02;0.77;;;0.50;;
31081;SDS011;17737;52.586;13.284;2023-02-24T02:13:33;1.35;;;0.90;;
31081;SDS011;17737;52.586;13.284;2023-02-24T02:16:10;2.75;;;1.17;;
31081;SDS011;17737;52.586;13.284;2023-02-24T02:19:07;0.82;;;0.60;;
31081;SDS011;17737;52.586;13.284;2023-02-24T02:22:00;1.48;;;0.70;;
31081;SDS011;17737;52.586;13.284;2023-02-24T02:24:50;1.20;;;0.80;;
31081;SDS011;17737;52.586;13.284;2023-02-24T02:27:30;1.02;;;0.73;;
31081;SDS011;17737;52.586;13.284;2023-02-24T02:30:44;1.33;;;0.90;;
31081;SDS011;17737;52.586;13.284;2023-02-24T02:33:48;1.10;;;1.00;;
31081;SDS011;17737;52.586;13.284;2023-02-24T02:36:54;0.98;;;0.60;;
31081;SDS011;17737;52.586;13.284;2023-02-24T02:39:33;1.17;;;0.88;;
31081;SDS011;17737;52.586;13.284;2023-02-24T02:42:23;0.93;;;0.57;;
31081;SDS011;17737;52.586;13.284;2023-02-24T02:44:59;1.45;;;0.77;;
31081;SDS011;17737;52.586;13.284;2023-02-24T02:47:33;1.08;;;0.70;;
31081;SDS011;17737;52.586;13.284;2023-02-24T02:50:11;1.73;;;0.75;;
31081;SDS011;17737;52.586;13.284;2023-02-24T02:52:48;1.10;;;0.70;;
31081;SDS011;17737;52.586;13.284;2023-02-24T02:55:23;0.65;;;0.60;;
31081;SDS011;17737;52.586;13.284;2023-02-24T02:58:02;2.33;;;1.20;;
31081;SDS011;17737;52.586;13.284;2023-02-24T03:00:36;1.05;;;0.70;;
31081;SDS011;17737;52.586;13.284;2023-02-24T03:03:15;1.35;;;0.70;;
31081;SDS011;17737;52.586;13.284;2023-02-24T03:05:48;1.08;;;0.80;;
31081;SDS011;17737;52.586;13.284;2023-02-24T03:08:25;0.70;;;0.70;;
31081;SDS011;17737;52.586;13.284;2023-02-24T03:10:59;0.85;;;0.57;;
31081;SDS011;17737;52.586;13.284;2023-02-24T03:13:32;1.95;;;0.80;;
31081;SDS011;17737;52.586;13.284;2023-02-24T03:16:06;0.90;;;0.80;;
31081;SDS011;17737;52.586;13.284;2023-02-24T03:18:39;1.25;;;0.80;;
31081;SDS011;17737;52.586;13.284;2023-02-24T03:21:18;2.10;;;0.80;;
31081;SDS011;17737;52.586;13.284;2023-02-24T03:23:59;0.82;;;0.68;;
31081;SDS011;17737;52.586;13.284;2023-02-24T03:26:31;1.50;;;0.73;;
31081;SDS011;17737;52.586;13.284;2023-02-24T03:29:07;0.82;;;0.80;;
31081;SDS011;17737;52.586;13.284;2023-02-24T03:31:44;1.20;;;0.80;;
31081;SDS011;17737;52.586;13.284;2023-02-24T03:34:20;0.80;;;0.70;;
31081;SDS011;17737;52.586;13.284;2023-02-24T03:36:57;1.67;;;0.75;;
31081;SDS011;17737;52.586;13.284;2023-02-24T03:39:27;1.25;;;0.88;;
31081;SDS011;17737;52.586;13.284;2023-02-24T03:41:56;1.00;;;0.90;;
31081;SDS011;17737;52.586;13.284;2023-02-24T03:44:30;0.68;;;0.60;;
31081;SDS011;17737;52.586;13.284;2023-02-24T03:46:59;1.03;;;0.70;;
31081;SDS011;17737;52.586;13.284;2023-02-24T03:49:28;1.25;;;0.70;;
31081;SDS011;17737;52.586;13.284;2023-02-24T03:52:01;0.80;;;0.80;;
31081;SDS011;17737;52.586;13.284;2023-02-24T03:54:50;0.75;;;0.60;;
31081;SDS011;17737;52.586;13.284;2023-02-24T03:57:48;1.15;;;0.60;;
31081;SDS011;17737;52.586;13.284;2023-02-24T04:00:36;2.00;;;0.88;;
31081;SDS011;17737;52.586;13.284;2023-02-24T04:03:19;1.85;;;0.73;;
31081;SDS011;17737;52.586;13.284;2023-02-24T04:06:02;0.50;;;0.50;;
31081;SDS011;17737;52.586;13.284;2023-02-24T04:08:41;1.23;;;0.70;;
31081;SDS011;17737;52.586;13.284;2023-02-24T04:11:20;1.67;;;0.70;;
31081;SDS011;17737;52.586;13.284;2023-02-24T04:13:56;0.82;;;0.80;;
31081;SDS011;17737;52.586;13.284;2023-02-24T04:16:33;0.75;;;0.70;;
31081;SDS011;17737;52.586;13.284;2023-02-24T04:19:08;0.50;;;0.50;;
31081;SDS011;17737;52.586;13.284;2023-02-24T04:21:42;1.35;;;0.75;;
31081;SDS011;17737;52.586;13.284;2023-02-24T04:24:15;1.52;;;0.80;;
31081;SDS011;17737;52.586;13.284;2023-02-24T04:26:50;1.27;;;0.73;;
31081;SDS011;17737;52.586;13.284;2023-02-24T04:29:24;1.35;;;0.80;;
31081;SDS011;17737;52.586;13.284;2023-02-24T04:32:01;0.95;;;0.63;;
31081;SDS011;17737;52.586;13.284;2023-02-24T04:34:34;1.75;;;0.80;;
31081;SDS011;17737;52.586;13.284;2023-02-24T04:37:02;1.42;;;0.80;;
31081;SDS011;17737;52.586;13.284;2023-02-24T04:39:32;1.73;;;0.70;;
31081;SDS011;17737;52.586;13.284;2023-02-24T04:42:03;0.82;;;0.60;;
31081;SDS011;17737;52.586;13.284;2023-02-24T04:44:32;4.15;;;0.80;;
31081;SDS011;17737;52.586;13.284;2023-02-24T04:47:01;1.02;;;0.88;;
31081;SDS011;17737;52.586;13.284;2023-02-24T04:49:29;1.40;;;0.87;;
31081;SDS011;17737;52.586;13.284;2023-02-24T04:51:59;1.08;;;0.70;;
31081;SDS011;17737;52.586;13.284;2023-02-24T04:54:27;0.60;;;0.60;;
31081;SDS011;17737;52.586;13.284;2023-02-24T04:56:56;0.80;;;0.70;;
31081;SDS011;17737;52.586;13.284;2023-02-24T04:59:25;0.88;;;0.50;;
31081;SDS011;17737;52.586;13.284;2023-02-24T05:01:54;0.70;;;0.70;;
31081;SDS011;17737;52.586;13.284;2023-02-24T05:04:26;0.50;;;0.50;;
31081;SDS011;17737;52.586;13.284;2023-02-24T05:06:57;0.90;;;0.65;;
31081;SDS011;17737;52.586;13.284;2023-02-24T05:09:25;0.90;;;0.70;;
31081;SDS011;17737;52.586;13.284;2023-02-24T05:11:56;0.60;;;0.60;;
31081;SDS011;17737;52.586;13.284;2023-02-24T05:14:25;0.90;;;0.80;;
31081;SDS011;17737;52.586;13.284;2023-02-24T05:16:53;1.35;;;0.82;;
31081;SDS011;17737;52.586;13.284;2023-02-24T05:19:25;1.40;;;0.80;;
31081;SDS011;17737;52.586;13.284;2023-02-24T05:22:11;0.60;;;0.60;;
31081;SDS011;17737;52.586;13.284;2023-02-24T05:24:42;1.17;;;0.70;;
31081;SDS011;17737;52.586;13.284;2023-02-24T05:27:14;0.68;;;0.68;;
31081;SDS011;17737;52.586;13.284;2023-02-24T05:29:42;0.95;;;0.80;;
31081;SDS011;17737;52.586;13.284;2023-02-24T05:32:10;1.92;;;0.73;;
31081;SDS011;17737;52.586;13.284;2023-02-24T05:34:41;0.68;;;0.68;;
31081;SDS011;17737;52.586;13.284;2023-02-24T05:37:12;1.27;;;0.60;;
31081;SDS011;17737;52.586;13.284;2023-02-24T05:39:41;0.93;;;0.73;;
31081;SDS011;17737;52.586;13.284;2023-02-24T05:42:09;0.52;;;0.52;;
31081;SDS011;17737;52.586;13.284;2023-02-24T05:44:39;0.88;;;0.52;;
31081;SDS011;17737;52.586;13.284;2023-02-24T05:47:07;0.60;;;0.60;;
31081;SDS011;17737;52.586;13.284;2023-02-24T05:49:35;0.95;;;0.70;;
31081;SDS011;17737;52.586;13.284;2023-02-24T05:52:04;1.15;;;0.70;;
31081;SDS011;17737;52.586;13.284;2023-02-24T05:54:35;1.25;;;0.60;;
31081;SDS011;17737;52.586;13.284;2023-02-24T05:57:07;0.93;;;0.60;;
31081;SDS011;17737;52.586;13.284;2023-02-24T05:59:40;1.38;;;0.77;;
31081;SDS011;17737;52.586;13.284;2023-02-24T06:02:10;1.10;;;0.77;;
31081;SDS011;17737;52.586;13.284;2023-02-24T06:04:40;0.60;;;0.50;;
31081;SDS011;17737;52.586;13.284;2023-02-24T06:07:16;1.98;;;0.90;;
31081;SDS011;17737;52.586;13.284;2023-02-24T06:09:48;0.60;;;0.60;;
31081;SDS011;17737;52.586;13.284;2023-02-24T06:12:20;0.60;;;0.60;;
31081;SDS011;17737;52.586;13.284;2023-02-24T06:14:51;1.13;;;0.55;;
31081;SDS011;17737;52.586;13.284;2023-02-24T06:17:19;1.25;;;0.68;;
31081;SDS011;17737;52.586;13.284;2023-02-24T06:19:50;0.80;;;0.68;;
31081;SDS011;17737;52.586;13.284;2023-02-24T06:22:20;1.30;;;0.70;;
31081;SDS011;17737;52.586;13.284;2023-02-24T06:24:52;0.52;;;0.52;;
31081;SDS011;17737;52.586;13.284;2023-02-24T06:27:22;0.63;;;0.63;;
31081;SDS011;17737;52.586;13.284;2023-02-24T06:29:53;0.80;;;0.80;;
31081;SDS011;17737;52.586;13.284;2023-02-24T06:32:24;0.70;;;0.70;;
31081;SDS011;17737;52.586;13.284;2023-02-24T06:34:53;0.82;;;0.70;;
31081;SDS011;17737;52.586;13.284;2023-02-24T06:37:22;0.50;;;0.50;;
31081;SDS011;17737;52.586;13.284;2023-02-24T06:39:50;1.60;;;1.05;;
31081;SDS011;17737;52.586;13.284;2023-02-24T06:42:18;0.95;;;0.70;;
31081;SDS011;17737;52.586;13.284;2023-02-24T06:44:46;1.25;;;0.77;;
31081;SDS011;17737;52.586;13.284;2023-02-24T06:47:16;0.50;;;0.50;;
31081;SDS011;17737;52.586;13.284;2023-02-24T06:49:44;1.42;;;0.77;;
31081;SDS011;17737;52.586;13.284;2023-02-24T06:52:13;1.55;;;0.65;;
31081;SDS011;17737;52.586;13.284;2023-02-24T06:54:45;1.05;;;0.70;;
31081;SDS011;17737;52.586;13.284;2023-02-24T06:57:17;1.23;;;0.70;;
31081;SDS011;17737;52.586;13.284;2023-02-24T06:59:45;1.23;;;0.90;;
31081;SDS011;17737;52.586;13.284;2023-02-24T07:02:14;0.93;;;0.70;;
31081;SDS011;17737;52.586;13.284;2023-02-24T07:04:44;1.05;;;0.77;;
31081;SDS011;17737;52.586;13.284;2023-02-24T07:07:12;0.80;;;0.60;;
31081;SDS011;17737;52.586;13.284;2023-02-24T07:09:42;0.68;;;0.68;;
31081;SDS011;17737;52.586;13.284;2023-02-24T07:12:10;0.70;;;0.70;;
31081;SDS011;17737;52.586;13.284;2023-02-24T07:14:40;0.43;;;0.40;;
31081;SDS011;17737;52.586;13.284;2023-02-24T07:17:09;1.02;;;0.90;;
31081;SDS011;17737;52.586;13.284;2023-02-24T07:19:39;0.57;;;0.50;;
31081;SDS011;17737;52.586;13.284;2023-02-24T07:22:09;0.65;;;0.65;;
31081;SDS011;17737;52.586;13.284;2023-02-24T07:24:39;0.82;;;0.73;;
31081;SDS011;17737;52.586;13.284;2023-02-24T07:27:12;0.80;;;0.70;;
31081;SDS011;17737;52.586;13.284;2023-02-24T07:29:48;1.20;;;0.73;;
31081;SDS011;17737;52.586;13.284;2023-02-24T07:32:19;0.63;;;0.60;;
31081;SDS011;17737;52.586;13.284;2023-02-24T07:34:48;0.68;;;0.50;;
31081;SDS011;17737;52.586;13.284;2023-02-24T07:37:17;0.50;;;0.50;;
31081;SDS011;17737;52.586;13.284;2023-02-24T07:39:46;0.55;;;0.55;;
31081;SDS011;17737;52.586;13.284;2023-02-24T07:42:14;1.25;;;0.60;;
31081;SDS011;17737;52.586;13.284;2023-02-24T07:44:42;0.65;;;0.60;;
31081;SDS011;17737;52.586;13.284;2023-02-24T07:47:11;0.93;;;0.70;;
31081;SDS011;17737;52.586;13.284;2023-02-24T07:49:41;0.68;;;0.68;;
31081;SDS011;17737;52.586;13.284;2023-02-24T07:54:40;1.27;;;0.85;;
31081;SDS011;17737;52.586;13.284;2023-02-24T07:57:08;0.70;;;0.70;;
31081;SDS011;17737;52.586;13.284;2023-02-24T07:59:39;0.50;;;0.50;;
31081;SDS011;17737;52.586;13.284;2023-02-24T08:02:10;0.47;;;0.47;;
31081;SDS011;17737;52.586;13.284;2023-02-24T08:04:39;0.93;;;0.70;;
31081;SDS011;17737;52.586;13.284;2023-02-24T08:07:15;0.60;;;0.60;;
31081;SDS011;17737;52.586;13.284;2023-02-24T08:09:44;0.68;;;0.65;;
31081;SDS011;17737;52.586;13.284;2023-02-24T08:12:29;0.93;;;0.73;;
31081;SDS011;17737;52.586;13.284;2023-02-24T08:15:00;1.85;;;0.85;;
31081;SDS011;17737;52.586;13.284;2023-02-24T08:17:34;3.17;;;0.80;;
31081;SDS011;17737;52.586;13.284;2023-02-24T08:20:02;0.55;;;0.50;;
31081;SDS011;17737;52.586;13.284;2023-02-24T08:22:50;0.98;;;0.70;;
31081;SDS011;17737;52.586;13.284;2023-02-24T08:25:23;1.35;;;0.70;;
31081;SDS011;17737;52.586;13.284;2023-02-24T08:28:01;0.75;;;0.50;;
31081;SDS011;17737;52.586;13.284;2023-02-24T08:30:35;1.00;;;0.60;;
31081;SDS011;17737;52.586;13.284;2023-02-24T08:33:10;0.50;;;0.50;;
31081;SDS011;17737;52.586;13.284;2023-02-24T08:35:42;1.05;;;0.60;;
31081;SDS011;17737;52.586;13.284;2023-02-24T08:38:11;0.52;;;0.47;;
31081;SDS011;17737;52.586;13.284;2023-02-24T08:40:45;0.60;;;0.47;;
31081;SDS011;17737;52.586;13.284;2023-02-24T08:43:21;0.45;;;0.40;;
31081;SDS011;17737;52.586;13.284;2023-02-24T08:46:00;0.68;;;0.60;;
31081;SDS011;17737;52.586;13.284;2023-02-24T08:48:44;1.15;;;0.80;;
31081;SDS011;17737;52.586;13.284;2023-02-24T08:51:15;0.70;;;0.50;;
31081;SDS011;17737;52.586;13.284;2023-02-24T08:53:49;0.88;;;0.60;;
31081;SDS011;17737;52.586;13.284;2023-02-24T08:56:22;0.63;;;0.60;;
31081;SDS011;17737;52.586;13.284;2023-02-24T08:58:54;0.40;;;0.40;;
31081;SDS011;17737;52.586;13.284;2023-02-24T09:01:31;0.70;;;0.60;;
31081;SDS011;17737;52.586;13.284;2023-02-24T09:04:04;0.63;;;0.63;;
31081;SDS011;17737;52.586;13.284;2023-02-24T09:06:37;0.65;;;0.60;;
31081;SDS011;17737;52.586;13.284;2023-02-24T09:09:10;0.52;;;0.40;;
31081;SDS011;17737;52.586;13.284;2023-02-24T09:11:45;0.60;;;0.50;;
31081;SDS011;17737;52.586;13.284;2023-02-24T09:14:16;0.80;;;0.60;;
31081;SDS011;17737;52.586;13.284;2023-02-24T09:16:55;0.70;;;0.70;;
31081;SDS011;17737;52.586;13.284;2023-02-24T09:19:34;0.40;;;0.40;;
31081;SDS011;17737;52.586;13.284;2023-02-24T09:22:24;0.50;;;0.50;;
31081;SDS011;17737;52.586;13.284;2023-02-24T09:25:23;0.52;;;0.52;;
31081;SDS011;17737;52.586;13.284;2023-02-24T09:28:08;0.40;;;0.40;;
31081;SDS011;17737;52.586;13.284;2023-02-24T09:30:43;0.60;;;0.60;;
31081;SDS011;17737;52.586;13.284;2023-02-24T09:33:20;0.50;;;0.50;;
31081;SDS011;17737;52.586;13.284;2023-02-24T09:35:53;1.08;;;0.88;;
31081;SDS011;17737;52.586;13.284;2023-02-24T09:38:35;0.60;;;0.60;;
31081;SDS011;17737;52.586;13.284;2023-02-24T09:41:22;1.55;;;0.85;;
31081;SDS011;17737;52.586;13.284;2023-02-24T09:44:02;0.75;;;0.52;;
31081;SDS011;17737;52.586;13.284;2023-02-24T09:46:44;0.52;;;0.52;;
31081;SDS011;17737;52.586;13.284;2023-02-24T09:49:21;0.68;;;0.60;;
31081;SDS011;17737;52.586;13.284;2023-02-24T09:52:08;0.50;;;0.50;;
31081;SDS011;17737;52.586;13.284;2023-02-24T09:54:43;0.30;;;0.30;;
31081;SDS011;17737;52.586;13.284;2023-02-24T09:57:45;0.50;;;0.50;;
31081;SDS011;17737;52.586;13.284;2023-02-24T10:00:57;1.35;;;0.60;;
31081;SDS011;17737;52.586;13.284;2023-02-24T10:03:49;0.40;;;0.40;;
31081;SDS011;17737;52.586;13.284;2023-02-24T10:06:45;0.98;;;0.82;;
31081;SDS011;17737;52.586;13.284;2023-02-24T10:09:17;0.60;;;0.60;;
31081;SDS011;17737;52.586;13.284;2023-02-24T10:11:53;0.50;;;0.50;;
31081;SDS011;17737;52.586;13.284;2023-02-24T10:14:32;0.60;;;0.55;;
31081;SDS011;17737;52.586;13.284;2023-02-24T10:17:18;0.80;;;0.80;;
31081;SDS011;17737;52.586;13.284;2023-02-24T10:22:30;0.50;;;0.50;;
31081;SDS011;17737;52.586;13.284;2023-02-24T10:25:24;0.90;;;0.70;;
31081;SDS011;17737;52.586;13.284;2023-02-24T10:28:10;0.50;;;0.50;;
31081;SDS011;17737;52.586;13.284;2023-02-24T10:31:02;0.60;;;0.60;;
31081;SDS011;17737;52.586;13.284;2023-02-24T10:33:53;0.55;;;0.55;;
31081;SDS011;17737;52.586;13.284;2023-02-24T10:36:31;0.50;;;0.50;;
31081;SDS011;17737;52.586;13.284;2023-02-24T10:39:02;0.55;;;0.55;;
31081;SDS011;17737;52.586;13.284;2023-02-24T10:41:43;0.50;;;0.50;;
31081;SDS011;17737;52.586;13.284;2023-02-24T10:44:18;0.65;;;0.63;;
31081;SDS011;17737;52.586;13.284;2023-02-24T10:46:58;0.60;;;0.60;;
31081;SDS011;17737;52.586;13.284;2023-02-24T10:49:42;0.50;;;0.43;;
31081;SDS011;17737;52.586;13.284;2023-02-24T10:52:23;0.45;;;0.45;;
31081;SDS011;17737;52.586;13.284;2023-02-24T10:55:04;0.50;;;0.50;;
31081;SDS011;17737;52.586;13.284;2023-02-24T10:57:53;0.60;;;0.60;;
31081;SDS011;17737;52.586;13.284;2023-02-24T11:00:38;0.88;;;0.60;;
31081;SDS011;17737;52.586;13.284;2023-02-24T11:03:26;0.55;;;0.47;;
31081;SDS011;17737;52.586;13.284;2023-02-24T11:06:19;0.68;;;0.50;;
31081;SDS011;17737;52.586;13.284;2023-02-24T11:09:14;0.50;;;0.50;;
31081;SDS011;17737;52.586;13.284;2023-02-24T11:12:03;1.30;;;0.65;;
31081;SDS011;17737;52.586;13.284;2023-02-24T11:14:58;0.65;;;0.60;;
31081;SDS011;17737;52.586;13.284;2023-02-24T11:17:48;0.43;;;0.43;;
31081;SDS011;17737;52.586;13.284;2023-02-24T11:20:28;0.60;;;0.60;;
31081;SDS011;17737;52.586;13.284;2023-02-24T11:23:16;0.60;;;0.60;;
31081;SDS011;17737;52.586;13.284;2023-02-24T11:25:50;0.50;;;0.50;;
31081;SDS011;17737;52.586;13.284;2023-02-24T11:28:36;0.50;;;0.50;;
31081;SDS011;17737;52.586;13.284;2023-02-24T11:31:23;0.90;;;0.80;;
31081;SDS011;17737;52.586;13.284;2023-02-24T11:34:14;1.02;;;0.80;;
31081;SDS011;17737;52.586;13.284;2023-02-24T11:36:57;0.70;;;0.70;;
31081;SDS011;17737;52.586;13.284;2023-02-24T11:39:46;0.88;;;0.60;;
31081;SDS011;17737;52.586;13.284;2023-02-24T11:42:23;0.47;;;0.47;;
31081;SDS011;17737;52.586;13.284;2023-02-24T11:45:00;0.65;;;0.60;;
31081;SDS011;17737;52.586;13.284;2023-02-24T11:47:39;0.70;;;0.60;;
31081;SDS011;17737;52.586;13.284;2023-02-24T11:50:28;0.50;;;0.50;;
31081;SDS011;17737;52.586;13.284;2023-02-24T11:55:48;1.58;;;0.70;;
31081;SDS011;17737;52.586;13.284;2023-02-24T11:58:27;0.70;;;0.70;;
31081;SDS011;17737;52.586;13.284;2023-02-24T12:01:08;0.50;;;0.50;;
31081;SDS011;17737;52.586;13.284;2023-02-24T12:03:49;0.55;;;0.55;;
31081;SDS011;17737;52.586;13.284;2023-02-24T12:06:24;0.50;;;0.40;;
31081;SDS011;17737;52.586;13.284;2023-02-24T12:09:02;0.90;;;0.60;;
31081;SDS011;17737;52.586;13.284;2023-02-24T12:11:44;0.60;;;0.60;;
31081;SDS011;17737;52.586;13.284;2023-02-24T12:14:24;0.50;;;0.50;;
31081;SDS011;17737;52.586;13.284;2023-02-24T12:17:02;0.70;;;0.68;;
31081;SDS011;17737;52.586;13.284;2023-02-24T12:19:48;1.08;;;0.77;;
31081;SDS011;17737;52.586;13.284;2023-02-24T12:22:25;1.00;;;0.50;;
31081;SDS011;17737;52.586;13.284;2023-02-24T12:25:09;0.40;;;0.40;;
31081;SDS011;17737;52.586;13.284;2023-02-24T12:27:44;1.08;;;0.57;;
31081;SDS011;17737;52.586;13.284;2023-02-24T12:30:32;1.38;;;0.70;;
31081;SDS011;17737;52.586;13.284;2023-02-24T12:33:25;0.95;;;0.70;;
31081;SDS011;17737;52.586;13.284;2023-02-24T12:36:11;0.50;;;0.50;;
31081;SDS011;17737;52.586;13.284;2023-02-24T12:38:58;0.63;;;0.60;;
31081;SDS011;17737;52.586;13.284;2023-02-24T12:41:42;1.02;;;0.60;;
31081;SDS011;17737;52.586;13.284;2023-02-24T12:44:37;0.60;;;0.60;;
31081;SDS011;17737;52.586;13.284;2023-02-24T12:47:21;0.50;;;0.50;;
31081;SDS011;17737;52.586;13.284;2023-02-24T12:50:21;0.82;;;0.63;;
31081;SDS011;17737;52.586;13.284;2023-02-24T12:52:59;0.50;;;0.50;;
31081;SDS011;17737;52.586;13.284;2023-02-24T12:55:45;0.57;;;0.57;;
31081;SDS011;17737;52.586;13.284;2023-02-24T12:58:29;0.52;;;0.50;;
31081;SDS011;17737;52.586;13.284;2023-02-24T13:01:06;0.60;;;0.50;;
31081;SDS011;17737;52.586;13.284;2023-02-24T13:04:00;0.85;;;0.80;;
31081;SDS011;17737;52.586;13.284;2023-02-24T13:06:55;0.82;;;0.68;;
31081;SDS011;17737;52.586;13.284;2023-02-24T13:09:37;0.63;;;0.60;;
31081;SDS011;17737;52.586;13.284;2023-02-24T13:12:19;0.50;;;0.50;;
31081;SDS011;17737;52.586;13.284;2023-02-24T13:14:58;0.60;;;0.57;;
31081;SDS011;17737;52.586;13.284;2023-02-24T13:17:31;0.60;;;0.50;;
31081;SDS011;17737;52.586;13.284;2023-02-24T13:20:08;0.77;;;0.70;;
31081;SDS011;17737;52.586;13.284;2023-02-24T13:22:41;0.60;;;0.60;;
31081;SDS011;17737;52.586;13.284;2023-02-24T13:25:16;0.70;;;0.60;;
31081;SDS011;17737;52.586;13.284;2023-02-24T13:27:58;0.75;;;0.75;;
31081;SDS011;17737;52.586;13.284;2023-02-24T13:30:32;0.50;;;0.50;;
31081;SDS011;17737;52.586;13.284;2023-02-24T13:33:19;0.45;;;0.45;;
31081;SDS011;17737;52.586;13.284;2023-02-24T13:36:03;0.50;;;0.50;;
31081;SDS011;17737;52.586;13.284;2023-02-24T13:38:38;0.47;;;0.40;;
31081;SDS011;17737;52.586;13.284;2023-02-24T13:41:23;0.88;;;0.60;;
31081;SDS011;17737;52.586;13.284;2023-02-24T13:44:22;0.40;;;0.40;;
31081;SDS011;17737;52.586;13.284;2023-02-24T13:50:18;0.82;;;0.68;;
31081;SDS011;17737;52.586;13.284;2023-02-24T13:53:00;1.10;;;0.70;;
31081;SDS011;17737;52.586;13.284;2023-02-24T13:55:56;0.40;;;0.40;;
31081;SDS011;17737;52.586;13.284;2023-02-24T13:58:49;0.85;;;0.77;;
31081;SDS011;17737;52.586;13.284;2023-02-24T14:01:43;0.57;;;0.57;;
31081;SDS011;17737;52.586;13.284;2023-02-24T14:04:17;1.13;;;0.60;;
31081;SDS011;17737;52.586;13.284;2023-02-24T14:06:55;0.77;;;0.50;;
31081;SDS011;17737;52.586;13.284;2023-02-24T14:09:29;1.00;;;0.57;;
31081;SDS011;17737;52.586;13.284;2023-02-24T14:12:04;0.73;;;0.50;;
31081;SDS011;17737;52.586;13.284;2023-02-24T14:14:40;1.15;;;0.68;;
31081;SDS011;17737;52.586;13.284;2023-02-24T14:17:17;0.52;;;0.52;;
31081;SDS011;17737;52.586;13.284;2023-02-24T14:19:54;0.60;;;0.60;;
31081;SDS011;17737;52.586;13.284;2023-02-24T14:22:41;0.40;;;0.40;;
31081;SDS011;17737;52.586;13.284;2023-02-24T14:25:11;0.40;;;0.40;;
31081;SDS011;17737;52.586;13.284;2023-02-24T14:27:41;0.60;;;0.60;;
31081;SDS011;17737;52.586;13.284;2023-02-24T14:30:20;0.40;;;0.40;;
31081;SDS011;17737;52.586;13.284;2023-02-24T14:32:52;0.50;;;0.50;;
31081;SDS011;17737;52.586;13.284;2023-02-24T14:35:23;0.60;;;0.60;;
31081;SDS011;17737;52.586;13.284;2023-02-24T14:38:00;0.75;;;0.75;;
31081;SDS011;17737;52.586;13.284;2023-02-24T14:40:29;0.50;;;0.50;;
31081;SDS011;17737;52.586;13.284;2023-02-24T14:42:58;0.40;;;0.40;;
31081;SDS011;17737;52.586;13.284;2023-02-24T14:45:28;0.40;;;0.40;;
31081;SDS011;17737;52.586;13.284;2023-02-24T14:47:56;0.45;;;0.45;;
31081;SDS011;17737;52.586;13.284;2023-02-24T14:50:25;0.50;;;0.50;;
31081;SDS011;17737;52.586;13.284;2023-02-24T14:53:01;0.30;;;0.30;;
31081;SDS011;17737;52.586;13.284;2023-02-24T14:55:38;0.30;;;0.30;;
31081;SDS011;17737;52.586;13.284;2023-02-24T14:58:14;0.50;;;0.50;;
31081;SDS011;17737;52.586;13.284;2023-02-24T15:00:50;0.55;;;0.55;;
31081;SDS011;17737;52.586;13.284;2023-02-24T15:03:25;0.40;;;0.40;;
31081;SDS011;17737;52.586;13.284;2023-02-24T15:05:59;0.50;;;0.50;;
31081;SDS011;17737;52.586;13.284;2023-02-24T15:08:35;0.63;;;0.63;;
31081;SDS011;17737;52.586;13.284;2023-02-24T15:11:08;0.40;;;0.40;;
31081;SDS011;17737;52.586;13.284;2023-02-24T15:13:47;0.30;;;0.30;;
31081;SDS011;17737;52.586;13.284;2023-02-24T15:16:21;0.40;;;0.40;;
31081;SDS011;17737;52.586;13.284;2023-02-24T15:18:54;0.30;;;0.30;;
31081;SDS011;17737;52.586;13.284;2023-02-24T15:21:27;0.30;;;0.30;;
31081;SDS011;17737;52.586;13.284;2023-02-24T15:24:00;0.40;;;0.40;;
31081;SDS011;17737;52.586;13.284;2023-02-24T15:26:32;0.40;;;0.40;;
31081;SDS011;17737;52.586;13.284;2023-02-24T15:29:03;0.60;;;0.60;;
31081;SDS011;17737;52.586;13.284;2023-02-24T15:34:15;0.52;;;0.52;;
31081;SDS011;17737;52.586;13.284;2023-02-24T15:36:47;0.50;;;0.50;;
31081;SDS011;17737;52.586;13.284;2023-02-24T15:39:22;0.30;;;0.30;;
31081;SDS011;17737;52.586;13.284;2023-02-24T15:42:04;0.40;;;0.40;;